FIN51W EFHK-ENBR
Flight info
| Callsign | FIN51W |
|---|---|
| Flight time | N/A |
| Altitude | 38000 |
| Route | ADIVO Y365 POGOK DCT PESUR |
| Aircraft | B77W/H-SDE1E2E3FGHIJ2J3J4J5M1RWXY/LB1D1 |
Departure
| Time | 2026-04-23 10:19 |
|---|---|
| Airport | Helsinki Vantaa Airport (EFHK) |
Arrival
| Time | N/A |
|---|---|
| Airport | Bergen Airport, Flesland (ENBR) |
| Time | Latitude | Longitude | Altitude | Speed | Heading |
|---|---|---|---|---|---|
| 2026-04-23 09:47 | 60.31732 | 24.96095 | 193 ft | 0 kts | 137° |
| 2026-04-23 10:09 | 60.31745 | 24.96071 | 209 ft | 4 kts | 137° |
| 2026-04-23 10:09 | 60.31762 | 24.96040 | 205 ft | 4 kts | 133° |
| 2026-04-23 10:09 | 60.31771 | 24.96002 | 208 ft | 4 kts | 66° |
| 2026-04-23 10:09 | 60.31755 | 24.95961 | 208 ft | 4 kts | 46° |
| 2026-04-23 10:10 | 60.31752 | 24.95953 | 208 ft | 0 kts | 47° |
| 2026-04-23 10:12 | 60.31758 | 24.95967 | 208 ft | 4 kts | 47° |
| 2026-04-23 10:12 | 60.31788 | 24.96032 | 207 ft | 9 kts | 47° |
| 2026-04-23 10:13 | 60.31834 | 24.96136 | 203 ft | 11 kts | 57° |
| 2026-04-23 10:13 | 60.31863 | 24.96313 | 208 ft | 18 kts | 63° |
| 2026-04-23 10:13 | 60.31964 | 24.96556 | 202 ft | 25 kts | 48° |
| 2026-04-23 10:13 | 60.32076 | 24.96807 | 206 ft | 16 kts | 47° |
| 2026-04-23 10:14 | 60.32130 | 24.96985 | 204 ft | 16 kts | 104° |
| 2026-04-23 10:14 | 60.32036 | 24.97126 | 208 ft | 22 kts | 152° |
| 2026-04-23 10:14 | 60.31882 | 24.97285 | 205 ft | 25 kts | 153° |
| 2026-04-23 10:14 | 60.31728 | 24.97444 | 205 ft | 25 kts | 153° |
| 2026-04-23 10:15 | 60.31576 | 24.97601 | 208 ft | 25 kts | 153° |
| 2026-04-23 10:15 | 60.31421 | 24.97760 | 203 ft | 25 kts | 153° |
| 2026-04-23 10:15 | 60.31267 | 24.97919 | 206 ft | 25 kts | 153° |
| 2026-04-23 10:15 | 60.31113 | 24.98077 | 205 ft | 25 kts | 154° |
| 2026-04-23 10:16 | 60.30956 | 24.98224 | 200 ft | 25 kts | 156° |
| 2026-04-23 10:16 | 60.30797 | 24.98362 | 205 ft | 25 kts | 156° |
| 2026-04-23 10:16 | 60.30669 | 24.98473 | 208 ft | 0 kts | 157° |
| 2026-04-23 10:17 | 60.30666 | 24.98476 | 208 ft | 4 kts | 157° |
| 2026-04-23 10:17 | 60.30663 | 24.98624 | 208 ft | 22 kts | 60° |
| 2026-04-23 10:18 | 60.30709 | 24.98774 | 210 ft | 9 kts | 44° |
| 2026-04-23 10:18 | 60.30769 | 24.98761 | 195 ft | 10 kts | 332° |
| 2026-04-23 10:18 | 60.31032 | 24.98494 | 203 ft | 84 kts | 333° |
| 2026-04-23 10:18 | 60.31785 | 24.97730 | 219 ft | 152 kts | 334° |
| 2026-04-23 10:19 | 60.32716 | 24.96724 | 986 ft | 152 kts | 333° |
| 2026-04-23 10:19 | 60.33652 | 24.95729 | 1992 ft | 149 kts | 333° |
| 2026-04-23 10:19 | 60.34619 | 24.94708 | 2614 ft | 170 kts | 333° |
| 2026-04-23 10:19 | 60.35752 | 24.93515 | 2855 ft | 202 kts | 333° |
| 2026-04-23 10:20 | 60.37120 | 24.92067 | 3295 ft | 229 kts | 333° |
| 2026-04-23 10:20 | 60.38549 | 24.90519 | 4275 ft | 234 kts | 334° |
| 2026-04-23 10:20 | 60.39939 | 24.88912 | 5403 ft | 233 kts | 334° |
| 2026-04-23 10:20 | 60.41353 | 24.87222 | 6377 ft | 238 kts | 333° |
| 2026-04-23 10:21 | 60.42724 | 24.85319 | 7263 ft | 245 kts | 320° |
| 2026-04-23 10:21 | 60.43679 | 24.82349 | 8090 ft | 262 kts | 296° |
| 2026-04-23 10:21 | 60.44017 | 24.78647 | 8932 ft | 272 kts | 285° |
| 2026-04-23 10:21 | 60.44243 | 24.74799 | 9826 ft | 277 kts | 285° |
| 2026-04-23 10:22 | 60.44463 | 24.70886 | 10605 ft | 286 kts | 285° |
| 2026-04-23 10:22 | 60.44705 | 24.66697 | 10904 ft | 315 kts | 285° |
| 2026-04-23 10:22 | 60.44973 | 24.62069 | 11141 ft | 345 kts | 284° |
| 2026-04-23 10:22 | 60.45251 | 24.57107 | 11804 ft | 361 kts | 284° |
| 2026-04-23 10:23 | 60.45526 | 24.52004 | 12854 ft | 367 kts | 284° |
| 2026-04-23 10:23 | 60.45800 | 24.46824 | 13985 ft | 372 kts | 285° |
| 2026-04-23 10:23 | 60.46079 | 24.41589 | 15015 ft | 376 kts | 285° |
| 2026-04-23 10:23 | 60.46362 | 24.36284 | 16036 ft | 381 kts | 285° |
| 2026-04-23 10:24 | 60.46650 | 24.30918 | 16985 ft | 386 kts | 284° |
| 2026-04-23 10:24 | 60.46943 | 24.25481 | 18046 ft | 390 kts | 284° |
| 2026-04-23 10:24 | 60.47240 | 24.19990 | 18906 ft | 395 kts | 285° |
| 2026-04-23 10:24 | 60.47537 | 24.14398 | 19749 ft | 401 kts | 285° |
| 2026-04-23 10:25 | 60.47834 | 24.08756 | 20612 ft | 405 kts | 285° |
| 2026-04-23 10:25 | 60.48129 | 24.03060 | 21462 ft | 409 kts | 285° |
| 2026-04-23 10:25 | 60.48413 | 23.97552 | 22243 ft | 413 kts | 285° |
| 2026-04-23 10:25 | 60.48712 | 23.91729 | 23047 ft | 418 kts | 285° |
| 2026-04-23 10:26 | 60.49012 | 23.85821 | 23779 ft | 423 kts | 285° |
| 2026-04-23 10:26 | 60.49312 | 23.79856 | 24454 ft | 427 kts | 285° |
| 2026-04-23 10:26 | 60.49610 | 23.73856 | 25165 ft | 429 kts | 286° |
| 2026-04-23 10:26 | 60.49904 | 23.67897 | 25846 ft | 431 kts | 286° |
| 2026-04-23 10:27 | 60.50202 | 23.61822 | 26443 ft | 435 kts | 286° |
| 2026-04-23 10:27 | 60.50498 | 23.55716 | 27176 ft | 435 kts | 286° |
| 2026-04-23 10:27 | 60.50791 | 23.49587 | 27868 ft | 437 kts | 286° |
| 2026-04-23 10:27 | 60.51085 | 23.43432 | 28422 ft | 440 kts | 286° |
| 2026-04-23 10:28 | 60.51380 | 23.37221 | 28928 ft | 444 kts | 286° |
| 2026-04-23 10:28 | 60.51674 | 23.30956 | 29441 ft | 447 kts | 286° |
| 2026-04-23 10:28 | 60.51966 | 23.24654 | 29925 ft | 450 kts | 286° |
| 2026-04-23 10:28 | 60.52256 | 23.18316 | 30384 ft | 451 kts | 286° |
| 2026-04-23 10:29 | 60.52539 | 23.11994 | 30915 ft | 449 kts | 286° |
| 2026-04-23 10:29 | 60.52816 | 23.05692 | 31484 ft | 447 kts | 286° |
| 2026-04-23 10:29 | 60.53081 | 22.99656 | 32005 ft | 445 kts | 286° |
| 2026-04-23 10:29 | 60.53352 | 22.93448 | 32509 ft | 443 kts | 286° |
| 2026-04-23 10:30 | 60.53621 | 22.87227 | 33021 ft | 440 kts | 286° |
| 2026-04-23 10:30 | 60.53884 | 22.81062 | 33658 ft | 436 kts | 286° |
| 2026-04-23 10:30 | 60.54144 | 22.74935 | 34122 ft | 436 kts | 286° |
| 2026-04-23 10:30 | 60.54405 | 22.68786 | 34386 ft | 439 kts | 286° |
| 2026-04-23 10:31 | 60.54579 | 22.64682 | 34537 ft | 441 kts | 285° |
| 2026-04-23 10:31 | 60.54840 | 22.58467 | 34803 ft | 443 kts | 285° |
| 2026-04-23 10:31 | 60.55097 | 22.52223 | 35107 ft | 444 kts | 285° |
| 2026-04-23 10:31 | 60.55351 | 22.45956 | 35374 ft | 446 kts | 285° |
| 2026-04-23 10:32 | 60.55602 | 22.39661 | 35655 ft | 447 kts | 284° |
| 2026-04-23 10:32 | 60.55850 | 22.33354 | 35930 ft | 449 kts | 284° |
| 2026-04-23 10:32 | 60.56096 | 22.27013 | 36203 ft | 450 kts | 284° |
| 2026-04-23 10:32 | 60.56340 | 22.20658 | 36424 ft | 451 kts | 284° |
| 2026-04-23 10:33 | 60.56580 | 22.14292 | 36747 ft | 452 kts | 284° |
| 2026-04-23 10:33 | 60.56818 | 22.07917 | 37016 ft | 453 kts | 283° |
| 2026-04-23 10:33 | 60.57054 | 22.01526 | 37268 ft | 455 kts | 283° |
| 2026-04-23 10:33 | 60.57279 | 21.95375 | 37535 ft | 456 kts | 283° |
| 2026-04-23 10:34 | 60.57511 | 21.88933 | 37782 ft | 457 kts | 283° |
| 2026-04-23 10:34 | 60.57741 | 21.82478 | 37925 ft | 461 kts | 283° |
| 2026-04-23 10:34 | 60.58197 | 21.69419 | 37995 ft | 463 kts | 283° |
| 2026-04-23 10:35 | 60.58629 | 21.56429 | 38016 ft | 457 kts | 282° |
| 2026-04-23 10:35 | 60.59044 | 21.43670 | 38016 ft | 454 kts | 283° |
| 2026-04-23 10:36 | 60.59453 | 21.30863 | 38030 ft | 453 kts | 282° |
| 2026-04-23 10:36 | 60.59851 | 21.18074 | 38034 ft | 453 kts | 282° |
| 2026-04-23 10:37 | 60.60237 | 21.05262 | 38037 ft | 454 kts | 282° |
| 2026-04-23 10:37 | 60.60602 | 20.92675 | 38036 ft | 455 kts | 282° |
| 2026-04-23 10:38 | 60.60963 | 20.79808 | 38038 ft | 456 kts | 282° |
| 2026-04-23 10:38 | 60.61310 | 20.66936 | 38032 ft | 454 kts | 282° |
| 2026-04-23 10:39 | 60.61644 | 20.54101 | 38035 ft | 454 kts | 282° |
| 2026-04-23 10:39 | 60.61967 | 20.41273 | 38038 ft | 454 kts | 282° |
| 2026-04-23 10:40 | 60.62277 | 20.28449 | 38040 ft | 453 kts | 282° |
| 2026-04-23 10:40 | 60.62576 | 20.15610 | 38049 ft | 453 kts | 282° |
| 2026-04-23 10:41 | 60.62861 | 20.02778 | 38049 ft | 453 kts | 281° |
| 2026-04-23 10:41 | 60.63129 | 19.90248 | 38054 ft | 453 kts | 281° |
| 2026-04-23 10:42 | 60.63390 | 19.77428 | 38052 ft | 453 kts | 281° |
| 2026-04-23 10:42 | 60.63639 | 19.64584 | 38060 ft | 454 kts | 281° |
| 2026-04-23 10:43 | 60.63874 | 19.51818 | 38060 ft | 454 kts | 281° |
| 2026-04-23 10:43 | 60.64099 | 19.38977 | 38060 ft | 454 kts | 281° |
| 2026-04-23 10:44 | 60.64309 | 19.26147 | 38061 ft | 452 kts | 281° |
| 2026-04-23 10:44 | 60.64509 | 19.13341 | 38063 ft | 452 kts | 281° |
| 2026-04-23 10:45 | 60.64696 | 19.00555 | 38067 ft | 451 kts | 280° |
| 2026-04-23 10:45 | 60.64867 | 18.88073 | 38068 ft | 451 kts | 280° |
| 2026-04-23 10:46 | 60.65030 | 18.75286 | 38071 ft | 451 kts | 280° |
| 2026-04-23 10:46 | 60.65180 | 18.62501 | 38034 ft | 450 kts | 280° |
| 2026-04-23 10:47 | 60.65317 | 18.49752 | 38066 ft | 450 kts | 280° |
| 2026-04-23 10:47 | 60.65443 | 18.37017 | 38053 ft | 449 kts | 279° |
| 2026-04-23 10:48 | 60.65556 | 18.24296 | 38080 ft | 449 kts | 279° |
| 2026-04-23 10:48 | 60.65658 | 18.11580 | 38080 ft | 449 kts | 279° |
| 2026-04-23 10:49 | 60.65746 | 17.99114 | 38095 ft | 449 kts | 279° |
| 2026-04-23 10:49 | 60.65823 | 17.86415 | 38081 ft | 447 kts | 278° |
| 2026-04-23 10:50 | 60.65888 | 17.73738 | 38082 ft | 447 kts | 278° |
| 2026-04-23 10:50 | 60.65941 | 17.61064 | 38086 ft | 447 kts | 278° |
| 2026-04-23 10:51 | 60.65982 | 17.48401 | 38089 ft | 447 kts | 278° |
| 2026-04-23 10:51 | 60.66012 | 17.35725 | 38088 ft | 447 kts | 278° |
| 2026-04-23 10:52 | 60.66029 | 17.23054 | 38048 ft | 447 kts | 277° |
| 2026-04-23 10:52 | 60.66034 | 17.10397 | 38089 ft | 447 kts | 277° |
| 2026-04-23 10:53 | 60.66028 | 16.98006 | 38091 ft | 447 kts | 277° |
| 2026-04-23 10:53 | 60.66010 | 16.85337 | 38096 ft | 447 kts | 277° |
| 2026-04-23 10:54 | 60.65980 | 16.72636 | 38096 ft | 448 kts | 277° |
| 2026-04-23 10:54 | 60.65941 | 16.59801 | 38105 ft | 458 kts | 277° |
| 2026-04-23 10:55 | 60.65888 | 16.46725 | 38107 ft | 463 kts | 276° |
| 2026-04-23 10:55 | 60.65815 | 16.33569 | 38102 ft | 464 kts | 276° |
| 2026-04-23 10:56 | 60.65729 | 16.20415 | 38100 ft | 463 kts | 276° |
| 2026-04-23 10:56 | 60.65632 | 16.07303 | 38101 ft | 461 kts | 276° |
| 2026-04-23 10:57 | 60.65526 | 15.94513 | 38103 ft | 459 kts | 276° |
| 2026-04-23 10:57 | 60.65406 | 15.81515 | 38076 ft | 458 kts | 276° |
| 2026-04-23 10:58 | 60.65275 | 15.68586 | 38107 ft | 455 kts | 275° |
| 2026-04-23 10:58 | 60.65132 | 15.55687 | 38110 ft | 455 kts | 275° |
| 2026-04-23 10:59 | 60.64978 | 15.42889 | 38114 ft | 454 kts | 275° |
| 2026-04-23 10:59 | 60.64811 | 15.30031 | 38127 ft | 454 kts | 275° |
| 2026-04-23 11:00 | 60.64633 | 15.17166 | 38127 ft | 454 kts | 275° |
| 2026-04-23 11:00 | 60.64440 | 15.04285 | 38129 ft | 455 kts | 275° |
| 2026-04-23 11:01 | 60.64239 | 14.91652 | 38129 ft | 456 kts | 274° |
| 2026-04-23 11:01 | 60.64022 | 14.78726 | 38140 ft | 457 kts | 274° |
| 2026-04-23 11:02 | 60.63791 | 14.65757 | 38128 ft | 458 kts | 274° |
| 2026-04-23 11:02 | 60.63547 | 14.52779 | 38144 ft | 459 kts | 274° |
| 2026-04-23 11:03 | 60.63380 | 14.47500 | 31424 ft | 214 kts | 274° |
| 2026-04-23 11:03 | 60.63050 | 14.47317 | 14992 ft | 184 kts | 98° |
| 2026-04-23 11:03 | 60.62989 | 14.46617 | 1645 ft | 126 kts | 357° |
| 2026-04-23 11:03 | 60.63531 | 14.45836 | 1078 ft | 9 kts | 353° |